createdAt,value
2019-05-02T00:01:23.665Z,99589.70
2019-05-02T00:03:56.430Z,99590.98
2019-05-02T00:06:29.724Z,99585.28
2019-05-02T00:09:03.938Z,99577.38
2019-05-02T00:11:39.082Z,99577.36
2019-05-02T00:14:12.791Z,99567.27
2019-05-02T00:16:49.312Z,99575.56
2019-05-02T00:19:19.978Z,99573.84
2019-05-02T00:21:53.266Z,99570.32
2019-05-02T00:24:26.985Z,99562.02
2019-05-02T00:27:01.301Z,99564.59
2019-05-02T00:29:34.784Z,99572.04
2019-05-02T00:32:07.572Z,99568.02
2019-05-02T00:34:41.392Z,99571.95
2019-05-02T00:37:14.067Z,99570.14
2019-05-02T00:39:49.170Z,99569.23
2019-05-02T00:42:22.507Z,99570.95
2019-05-02T00:44:55.476Z,99565.25
2019-05-02T00:47:47.723Z,99557.80
2019-05-02T00:50:21.325Z,99556.01
2019-05-02T00:52:53.998Z,99551.16
2019-05-02T00:55:28.960Z,99549.36
2019-05-02T00:58:02.116Z,99548.01
2019-05-02T01:00:37.047Z,99542.32
2019-05-02T01:03:11.054Z,99548.84
2019-05-02T01:05:44.861Z,99538.31
2019-05-02T01:08:17.553Z,99544.86
2019-05-02T01:10:52.148Z,99545.26
2019-05-02T01:13:26.907Z,99544.37
2019-05-02T01:16:01.017Z,99541.28
2019-05-02T01:18:37.142Z,99546.03
2019-05-02T01:21:08.058Z,99539.00
2019-05-02T01:23:40.679Z,99535.44
2019-05-02T01:26:13.354Z,99538.05
2019-05-02T01:28:49.132Z,99531.91
2019-05-02T01:31:38.079Z,99535.37
2019-05-02T01:34:28.776Z,99531.81
2019-05-02T01:37:03.092Z,99534.40
2019-05-02T01:39:37.932Z,99528.64
2019-05-02T01:42:11.364Z,99525.53
2019-05-02T01:44:44.000Z,99523.70
2019-05-02T01:47:17.449Z,99527.13
2019-05-02T01:49:51.961Z,99530.13
2019-05-02T01:52:25.705Z,99526.06
2019-05-02T01:54:58.408Z,99525.17
2019-05-02T01:57:31.179Z,99523.37
2019-05-02T02:00:09.593Z,99515.45
2019-05-02T02:02:39.315Z,99522.41
2019-05-02T02:05:12.088Z,99520.59
2019-05-02T02:07:44.759Z,99514.44
2019-05-02T02:10:19.805Z,99516.13
2019-05-02T02:13:03.562Z,99511.75
2019-05-02T02:15:29.088Z,99515.20
2019-05-02T02:18:00.804Z,99508.72
2019-05-02T02:20:45.189Z,99510.44
2019-05-02T02:23:32.068Z,99506.53
2019-05-02T02:26:13.879Z,99503.95
2019-05-02T02:28:46.551Z,99506.60
2019-05-02T02:31:25.304Z,99499.62
2019-05-02T02:33:59.722Z,99498.77
2019-05-02T02:36:34.627Z,99500.16
2019-05-02T02:39:14.586Z,99495.86
2019-05-02T02:41:45.319Z,99498.58
2019-05-02T02:44:39.844Z,99483.39
2019-05-02T02:47:18.759Z,99483.47
2019-05-02T02:49:45.773Z,99483.08
2019-05-02T02:52:18.442Z,99475.70
2019-05-02T02:54:51.084Z,99478.30
2019-05-02T02:57:27.933Z,99469.13
2019-05-02T03:00:06.732Z,99472.98
2019-05-02T03:02:33.304Z,99472.55
2019-05-02T03:05:08.690Z,99474.71
2019-05-02T03:07:41.385Z,99468.63
2019-05-02T03:10:14.169Z,99468.20
2019-05-02T03:12:49.646Z,99469.06
2019-05-02T03:15:27.866Z,99468.63
2019-05-02T03:18:00.048Z,99475.63
2019-05-02T03:20:40.149Z,99470.36
2019-05-02T03:23:07.190Z,99467.82
2019-05-02T03:25:50.487Z,99466.09
2019-05-02T03:28:18.618Z,99463.05
2019-05-02T03:30:49.210Z,99465.63
2019-05-02T03:33:22.349Z,99459.52
2019-05-02T03:35:56.362Z,99458.28
2019-05-02T03:38:32.385Z,99457.86
2019-05-02T03:41:04.455Z,99453.94
2019-05-02T03:43:37.122Z,99456.97
2019-05-02T03:46:13.495Z,99458.73
2019-05-02T03:48:44.426Z,99454.85
2019-05-02T03:51:21.439Z,99456.97
2019-05-02T03:53:51.524Z,99458.73
2019-05-02T03:56:24.308Z,99453.05
2019-05-02T03:58:58.174Z,99461.78
2019-05-02T04:01:34.835Z,99458.73
2019-05-02T04:04:07.462Z,99456.58
2019-05-02T04:06:40.293Z,99462.69
2019-05-02T04:09:32.037Z,99459.16
2019-05-02T04:12:11.781Z,99458.73
2019-05-02T04:14:40.101Z,99460.11
2019-05-02T04:17:13.495Z,99457.06
2019-05-02T04:19:46.476Z,99454.45
2019-05-02T04:22:21.325Z,99454.91
2019-05-02T04:24:54.836Z,99453.18
2019-05-02T04:27:34.127Z,99454.52
2019-05-02T04:30:09.721Z,99447.95
2019-05-02T04:32:37.645Z,99451.91
2019-05-02T04:35:10.325Z,99451.91
2019-05-02T04:37:43.827Z,99453.14
2019-05-02T04:40:18.232Z,99453.12
2019-05-02T04:43:01.053Z,99456.64
2019-05-02T04:45:35.905Z,99446.61
2019-05-02T04:48:03.923Z,99460.14
2019-05-02T04:50:34.073Z,99456.67
2019-05-02T04:53:08.614Z,99460.72
2019-05-02T04:55:42.096Z,99466.80
2019-05-02T04:58:24.263Z,99460.32
2019-05-02T05:00:53.568Z,99460.32
2019-05-02T05:03:24.027Z,99468.68
2019-05-02T05:05:59.364Z,99464.41
2019-05-02T05:08:31.922Z,99469.24
2019-05-02T05:11:04.783Z,99466.59
2019-05-02T05:13:37.597Z,99470.52
2019-05-02T05:16:15.351Z,99465.31
2019-05-02T05:18:49.384Z,99469.27
2019-05-02T05:21:19.667Z,99468.79
2019-05-02T05:24:00.979Z,99476.17
2019-05-02T05:26:33.791Z,99484.80
2019-05-02T05:29:08.215Z,99477.01
2019-05-02T05:31:41.019Z,99474.15
2019-05-02T05:34:13.740Z,99474.95
2019-05-02T05:36:48.147Z,99474.22
2019-05-02T05:39:20.989Z,99470.22
2019-05-02T05:41:55.098Z,99474.49
2019-05-02T05:44:32.465Z,99473.36
2019-05-02T05:47:02.831Z,99466.64
2019-05-02T05:49:37.513Z,99468.51
2019-05-02T05:52:10.525Z,99470.17
2019-05-02T05:54:43.309Z,99470.24
2019-05-02T05:57:20.826Z,99475.45
2019-05-02T05:59:50.922Z,99465.89
2019-05-02T06:02:23.620Z,99470.14
2019-05-02T06:05:02.538Z,99472.83
2019-05-02T06:07:33.099Z,99474.59
2019-05-02T06:10:07.944Z,99472.36
2019-05-02T06:12:40.153Z,99473.21
2019-05-02T06:15:12.981Z,99475.83
2019-05-02T06:17:45.623Z,99476.72
2019-05-02T06:20:18.494Z,99465.81
2019-05-02T06:22:55.084Z,99465.45
2019-05-02T06:25:34.191Z,99476.39
2019-05-02T06:28:05.462Z,99473.81
2019-05-02T06:30:36.182Z,99476.06
2019-05-02T06:33:08.872Z,99472.34
2019-05-02T06:35:41.848Z,99473.19
2019-05-02T06:38:14.475Z,99477.88
2019-05-02T06:40:47.916Z,99489.22
2019-05-02T06:43:21.211Z,99487.97
2019-05-02T06:45:53.989Z,99484.11
2019-05-02T06:48:26.678Z,99489.85
2019-05-02T06:51:00.739Z,99483.69
2019-05-02T06:53:35.105Z,99491.92
2019-05-02T06:56:07.937Z,99497.64
2019-05-02T06:58:43.299Z,99493.69
2019-05-02T07:01:20.635Z,99500.67
2019-05-02T07:03:50.528Z,99494.17
2019-05-02T07:06:23.543Z,99501.98
2019-05-02T07:08:59.669Z,99493.30
2019-05-02T07:11:33.215Z,99497.59
2019-05-02T07:14:13.675Z,99496.59
2019-05-02T07:16:43.299Z,99503.16
2019-05-02T07:19:36.084Z,99494.41
2019-05-02T07:22:10.017Z,99496.98
2019-05-02T07:24:42.839Z,99501.84
2019-05-02T07:27:15.572Z,99501.81
2019-05-02T07:29:52.184Z,99501.83
2019-05-02T07:32:24.655Z,99505.44
2019-05-02T07:34:57.811Z,99505.84
2019-05-02T07:37:31.902Z,99500.57
2019-05-02T07:40:06.544Z,99498.47
2019-05-02T07:42:41.834Z,99495.97
2019-05-02T07:45:15.991Z,99498.63
2019-05-02T07:47:48.708Z,99500.38
2019-05-02T07:50:21.692Z,99503.84
2019-05-02T07:52:54.445Z,99507.33
2019-05-02T07:55:30.541Z,99501.38
2019-05-02T07:58:07.010Z,99509.25
2019-05-02T08:00:37.113Z,99510.45
2019-05-02T08:03:10.783Z,99514.10
2019-05-02T08:05:43.477Z,99510.14
2019-05-02T08:08:16.141Z,99511.44
2019-05-02T08:10:53.862Z,99506.06
2019-05-02T08:13:23.755Z,99511.78
2019-05-02T08:15:58.373Z,99513.02
2019-05-02T08:18:31.752Z,99516.54
2019-05-02T08:21:04.768Z,99523.27
2019-05-02T08:23:37.555Z,99520.94
2019-05-02T08:26:10.222Z,99527.55
2019-05-02T08:28:46.959Z,99527.85
2019-05-02T08:31:20.861Z,99510.28
2019-05-02T08:33:53.175Z,99519.02
2019-05-02T08:36:25.868Z,99530.42
2019-05-02T08:38:58.634Z,99519.16
2019-05-02T08:41:31.923Z,99519.97
2019-05-02T08:44:04.709Z,99525.70
2019-05-02T08:46:37.400Z,99517.80
2019-05-02T08:49:14.200Z,99533.58
2019-05-02T08:51:44.496Z,99520.03
2019-05-02T08:54:17.167Z,99518.86
2019-05-02T08:56:53.340Z,99531.53
2019-05-02T08:59:26.221Z,99536.70
2019-05-02T09:01:59.603Z,99529.39
2019-05-02T09:04:32.401Z,99538.17
2019-05-02T09:07:05.035Z,99533.74
2019-05-02T09:09:37.863Z,99530.31
2019-05-02T09:12:13.253Z,99535.56
2019-05-02T09:14:44.962Z,99535.14
2019-05-02T09:17:17.583Z,99535.59
2019-05-02T09:20:00.285Z,99526.84
2019-05-02T09:22:26.571Z,99529.05
2019-05-02T09:25:02.113Z,99527.31
2019-05-02T09:27:34.793Z,99529.05
2019-05-02T09:30:17.099Z,99531.25
2019-05-02T09:32:47.646Z,99521.16
2019-05-02T09:35:22.951Z,99523.82
2019-05-02T09:37:55.346Z,99518.13
2019-05-02T09:40:28.018Z,99513.75
2019-05-02T09:43:02.824Z,99515.52
2019-05-02T09:45:37.511Z,99521.20
2019-05-02T09:48:12.577Z,99522.94
2019-05-02T09:50:45.803Z,99518.98
2019-05-02T09:53:20.761Z,99510.25
2019-05-02T09:55:57.713Z,99505.37
2019-05-02T09:58:28.974Z,99509.73
2019-05-02T10:01:03.288Z,99500.11
2019-05-02T10:03:35.905Z,99502.30
2019-05-02T10:06:16.443Z,99504.06
2019-05-02T10:08:46.344Z,99500.48
2019-05-02T10:11:22.499Z,99497.67
2019-05-02T10:13:55.293Z,99491.60
2019-05-02T10:16:27.448Z,99500.90
2019-05-02T10:19:09.516Z,99489.81
2019-05-02T10:21:35.975Z,99487.82
2019-05-02T10:24:08.869Z,99488.19
2019-05-02T10:26:42.041Z,99488.16
2019-05-02T10:29:15.147Z,99492.39
2019-05-02T10:31:47.931Z,99484.98
2019-05-02T10:34:22.683Z,99482.25
2019-05-02T10:36:58.951Z,99473.89
2019-05-02T10:39:36.135Z,99489.48
2019-05-02T10:42:03.664Z,99477.37
2019-05-02T10:44:36.695Z,99479.57
2019-05-02T10:47:09.533Z,99480.05
2019-05-02T10:49:43.756Z,99479.55
2019-05-02T10:52:16.532Z,99484.82
2019-05-02T10:54:49.213Z,99486.11
2019-05-02T10:57:22.025Z,99482.13
2019-05-02T10:59:56.240Z,99477.95
2019-05-02T11:02:36.146Z,99482.03
2019-05-02T11:05:11.982Z,99482.36
2019-05-02T11:07:44.789Z,99478.54
2019-05-02T11:10:19.325Z,99463.17
2019-05-02T11:13:09.746Z,99463.94
2019-05-02T11:15:52.505Z,99464.30
2019-05-02T11:18:39.429Z,99472.09
2019-05-02T11:21:06.818Z,99467.42
2019-05-02T11:23:36.289Z,99461.69
2019-05-02T11:26:16.339Z,99464.32
2019-05-02T11:28:43.893Z,99461.71
2019-05-02T11:31:16.777Z,99456.05
2019-05-02T11:33:49.461Z,99460.45
2019-05-02T11:36:22.502Z,99467.47
2019-05-02T11:39:03.208Z,99466.98
2019-05-02T11:41:31.743Z,99467.51
2019-05-02T11:44:05.399Z,99467.39
2019-05-02T11:46:42.934Z,99478.19
2019-05-02T11:49:13.765Z,99477.30
2019-05-02T11:51:47.183Z,99476.41
2019-05-02T11:54:22.625Z,99475.00
2019-05-02T11:56:55.155Z,99467.77
2019-05-02T11:59:29.317Z,99473.63
2019-05-02T12:02:17.507Z,99466.97
2019-05-02T12:04:47.333Z,99469.67
2019-05-02T12:07:18.602Z,99469.06
2019-05-02T12:09:56.836Z,99473.84
2019-05-02T12:12:27.203Z,99474.67
2019-05-02T12:15:02.467Z,99453.23
2019-05-02T12:17:35.211Z,99452.55
2019-05-02T12:20:08.553Z,99455.32
2019-05-02T12:22:41.977Z,99449.38
2019-05-02T12:25:15.503Z,99453.56
2019-05-02T12:27:48.177Z,99455.09
2019-05-02T12:30:22.850Z,99462.26
2019-05-02T12:32:57.087Z,99451.74
2019-05-02T12:35:32.123Z,99453.00
2019-05-02T12:38:04.603Z,99445.94
2019-05-02T12:40:37.267Z,99447.34
2019-05-02T12:43:11.836Z,99446.81
2019-05-02T12:45:44.361Z,99439.23
2019-05-02T12:48:17.060Z,99446.13
2019-05-02T12:50:49.818Z,99439.44
2019-05-02T12:53:23.105Z,99446.84
2019-05-02T12:55:57.021Z,99439.60
2019-05-02T12:58:29.707Z,99437.94
2019-05-02T13:01:02.917Z,99442.70
2019-05-02T13:03:37.259Z,99455.29
2019-05-02T13:06:12.098Z,99444.87
2019-05-02T13:08:52.502Z,99452.22
2019-05-02T13:11:32.010Z,99444.17
2019-05-02T13:14:04.570Z,99442.08
2019-05-02T13:16:37.295Z,99435.27
2019-05-02T13:19:11.928Z,99441.30
2019-05-02T13:22:02.534Z,99448.35
2019-05-02T13:24:36.740Z,99443.42
2019-05-02T13:27:12.596Z,99441.30
2019-05-02T13:29:45.736Z,99443.09
2019-05-02T13:32:21.764Z,99435.87
2019-05-02T13:35:12.869Z,99441.19
2019-05-02T13:37:47.314Z,99442.28
2019-05-02T13:40:22.724Z,99441.06
2019-05-02T13:42:55.503Z,99443.05
2019-05-02T13:45:33.086Z,99433.44
2019-05-02T13:48:07.294Z,99429.80
2019-05-02T13:50:40.084Z,99438.20
2019-05-02T13:53:12.814Z,99436.80
2019-05-02T13:55:49.639Z,99429.02
2019-05-02T13:58:28.908Z,99432.41
2019-05-02T14:00:56.586Z,99429.14
2019-05-02T14:03:29.271Z,99438.43
2019-05-02T14:06:02.952Z,99434.80
2019-05-02T14:08:37.655Z,99430.34
2019-05-02T14:11:10.014Z,99432.75
2019-05-02T14:13:42.751Z,99429.14
2019-05-02T14:16:15.391Z,99432.77
2019-05-02T14:18:48.155Z,99427.39
2019-05-02T14:21:22.407Z,99426.95
2019-05-02T14:23:55.110Z,99425.23
2019-05-02T14:26:30.576Z,99423.74
2019-05-02T14:29:02.534Z,99424.31
2019-05-02T14:31:36.781Z,99434.20
2019-05-02T14:34:23.582Z,99434.91
2019-05-02T14:36:59.237Z,99417.84
2019-05-02T14:39:32.513Z,99431.77
2019-05-02T14:42:05.512Z,99427.22
2019-05-02T14:45:01.481Z,99422.23
2019-05-02T14:47:18.200Z,99428.87
2019-05-02T14:49:48.315Z,99430.16
2019-05-02T14:52:22.141Z,99416.17
2019-05-02T14:54:55.755Z,99413.81
2019-05-02T14:57:28.607Z,99423.36
2019-05-02T15:00:03.249Z,99429.90
2019-05-02T15:02:48.784Z,99419.66
2019-05-02T15:05:19.233Z,99427.51
2019-05-02T15:07:56.933Z,99423.20
2019-05-02T15:10:27.415Z,99416.91
2019-05-02T15:13:01.931Z,99419.66
2019-05-02T15:15:40.860Z,99414.28
2019-05-02T15:18:15.832Z,99412.85
2019-05-02T15:20:44.880Z,99414.85
2019-05-02T15:23:19.835Z,99413.30
2019-05-02T15:25:55.975Z,99406.75
2019-05-02T15:28:30.579Z,99403.53
2019-05-02T15:31:05.337Z,99393.47
2019-05-02T15:33:39.554Z,99390.67
2019-05-02T15:36:14.212Z,99398.19
2019-05-02T15:38:47.614Z,99380.70
2019-05-02T15:41:21.819Z,99383.91
2019-05-02T15:43:54.658Z,99384.88
2019-05-02T15:46:28.343Z,99368.88
2019-05-02T15:49:01.862Z,99384.81
2019-05-02T15:51:37.927Z,99395.75
2019-05-02T15:54:12.517Z,99396.97
2019-05-02T15:57:00.341Z,99382.31
2019-05-02T15:59:41.681Z,99391.78
2019-05-02T16:02:17.589Z,99385.84
2019-05-02T16:04:52.127Z,99402.91
2019-05-02T16:07:24.523Z,99393.36
2019-05-02T16:10:01.163Z,99397.13
2019-05-02T16:12:35.930Z,99383.61
2019-05-02T16:15:13.440Z,99380.97
2019-05-02T16:17:42.912Z,99384.00
2019-05-02T16:20:17.172Z,99373.47
2019-05-02T16:22:50.088Z,99374.38
2019-05-02T16:25:24.488Z,99369.56
2019-05-02T16:28:02.653Z,99374.80
2019-05-02T16:30:32.551Z,99372.16
2019-05-02T16:33:08.003Z,99363.14
2019-05-02T16:35:39.659Z,99366.63
2019-05-02T16:38:14.375Z,99377.61
2019-05-02T16:40:47.158Z,99379.69
2019-05-02T16:43:19.934Z,99383.98
2019-05-02T16:45:52.638Z,99380.77
2019-05-02T16:48:32.337Z,99373.26
2019-05-02T16:51:02.172Z,99388.42
2019-05-02T16:53:36.294Z,99391.19
2019-05-02T16:56:09.066Z,99397.45
2019-05-02T16:58:43.402Z,99406.26
2019-05-02T17:01:24.628Z,99401.80
2019-05-02T17:03:50.482Z,99409.89
2019-05-02T17:06:25.988Z,99402.02
2019-05-02T17:08:58.795Z,99396.41
2019-05-02T17:11:35.886Z,99402.26
2019-05-02T17:14:12.110Z,99405.80
2019-05-02T17:16:42.378Z,99405.30
2019-05-02T17:19:15.068Z,99408.68
2019-05-02T17:21:54.015Z,99392.02
2019-05-02T17:24:26.027Z,99401.25
2019-05-02T17:26:56.327Z,99396.16
2019-05-02T17:29:29.051Z,99396.95
2019-05-02T17:32:02.232Z,99389.18
2019-05-02T17:34:35.111Z,99388.02
2019-05-02T17:37:11.512Z,99390.69
2019-05-02T17:39:45.971Z,99385.19
2019-05-02T17:42:17.016Z,99385.66
2019-05-02T17:44:51.698Z,99386.61
2019-05-02T17:47:25.230Z,99383.16
2019-05-02T17:50:01.963Z,99379.80
2019-05-02T17:52:38.629Z,99389.02
2019-05-02T17:55:13.819Z,99385.63
2019-05-02T17:57:46.552Z,99387.45
2019-05-02T18:00:21.615Z,99385.33
2019-05-02T18:02:54.474Z,99380.10
2019-05-02T18:05:32.061Z,99381.92
2019-05-02T18:08:01.460Z,99378.47
2019-05-02T18:10:34.197Z,99382.02
2019-05-02T18:13:07.241Z,99382.09
2019-05-02T18:15:41.732Z,99382.56
2019-05-02T18:18:14.331Z,99385.22
2019-05-02T18:20:47.062Z,99386.13
2019-05-02T18:23:24.079Z,99382.66
2019-05-02T18:25:57.316Z,99387.06
2019-05-02T18:28:28.432Z,99389.72
2019-05-02T18:31:02.772Z,99384.04
2019-05-02T18:33:35.954Z,99387.58
2019-05-02T18:36:09.847Z,99385.41
2019-05-02T18:38:42.461Z,99393.30
2019-05-02T18:41:15.707Z,99388.95
2019-05-02T18:43:48.399Z,99395.07
2019-05-02T18:46:22.316Z,99388.52
2019-05-02T18:48:55.287Z,99386.80
2019-05-02T18:51:28.072Z,99390.32
2019-05-02T18:54:04.270Z,99391.23
2019-05-02T18:56:42.807Z,99390.38
2019-05-02T18:59:09.374Z,99381.63
2019-05-02T19:01:42.733Z,99380.75
2019-05-02T19:04:15.651Z,99390.38
2019-05-02T19:06:48.335Z,99382.08
2019-05-02T19:09:22.881Z,99392.17
2019-05-02T19:12:05.030Z,99389.09
2019-05-02T19:14:29.757Z,99393.47
2019-05-02T19:17:05.450Z,99389.09
2019-05-02T19:19:38.099Z,99387.80
2019-05-02T19:22:13.241Z,99371.62
2019-05-02T19:24:45.192Z,99369.86
2019-05-02T19:27:21.070Z,99362.89
2019-05-02T19:29:54.823Z,99353.70
2019-05-02T19:32:28.463Z,99356.31
2019-05-02T19:35:06.833Z,99359.81
2019-05-02T19:37:44.617Z,99350.19
2019-05-02T19:40:20.067Z,99358.04
2019-05-02T19:42:52.703Z,99352.83
2019-05-02T19:45:25.863Z,99352.81
2019-05-02T19:47:58.859Z,99358.92
2019-05-02T19:50:43.506Z,99351.95
2019-05-02T19:53:17.880Z,99355.43
2019-05-02T19:55:47.546Z,99349.31
2019-05-02T19:58:20.522Z,99349.77
2019-05-02T20:00:53.198Z,99348.46
2019-05-02T20:03:26.600Z,99339.69
2019-05-02T20:06:02.467Z,99348.89
2019-05-02T20:08:33.703Z,99336.64
2019-05-02T20:11:06.574Z,99331.83
2019-05-02T20:13:39.472Z,99331.83
2019-05-02T20:16:17.272Z,99335.31
2019-05-02T20:18:52.549Z,99330.06
2019-05-02T20:21:28.054Z,99334.44
2019-05-02T20:24:02.072Z,99329.20
2019-05-02T20:26:35.862Z,99329.17
2019-05-02T20:29:08.960Z,99320.42
2019-05-02T20:31:41.894Z,99322.63
2019-05-02T20:34:14.935Z,99321.31
2019-05-02T20:36:47.604Z,99316.48
2019-05-02T20:39:22.357Z,99320.84
2019-05-02T20:41:54.829Z,99319.96
2019-05-02T20:44:28.362Z,99310.77
2019-05-02T20:47:02.623Z,99308.62
2019-05-02T20:49:35.409Z,99302.48
2019-05-02T20:52:08.095Z,99305.97
2019-05-02T20:54:42.689Z,99296.77
2019-05-02T20:57:15.794Z,99296.76
2019-05-02T20:59:48.576Z,99297.65
2019-05-02T21:02:21.865Z,99295.00
2019-05-02T21:04:54.571Z,99294.12
2019-05-02T21:07:33.061Z,99292.81
2019-05-02T21:10:12.568Z,99301.11
2019-05-02T21:12:45.497Z,99301.97
2019-05-02T21:15:18.417Z,99305.48
2019-05-02T21:17:51.108Z,99300.67
2019-05-02T21:20:24.965Z,99288.88
2019-05-02T21:22:57.650Z,99289.73
2019-05-02T21:25:32.412Z,99292.36
2019-05-02T21:28:04.684Z,99292.81
2019-05-02T21:30:37.428Z,99298.48
2019-05-02T21:33:17.488Z,99288.42
2019-05-02T21:35:51.815Z,99291.48
2019-05-02T21:38:24.567Z,99286.66
2019-05-02T21:40:57.269Z,99286.22
2019-05-02T21:43:31.646Z,99280.97
2019-05-02T21:46:04.710Z,99285.77
2019-05-02T21:48:37.330Z,99288.37
2019-05-02T21:51:12.269Z,99284.43
2019-05-02T21:54:04.816Z,99292.72
2019-05-02T21:56:43.025Z,99293.19
2019-05-02T21:59:15.902Z,99292.77
2019-05-02T22:01:57.843Z,99294.93
2019-05-02T22:04:31.835Z,99291.03
2019-05-02T22:07:05.004Z,99287.51
2019-05-02T22:09:38.701Z,99280.51
2019-05-02T22:12:12.086Z,99284.89
2019-05-02T22:14:45.686Z,99280.50
2019-05-02T22:17:18.436Z,99273.92
2019-05-02T22:19:52.406Z,99287.03
2019-05-02T22:22:25.575Z,99282.66
2019-05-02T22:24:58.258Z,99281.80
2019-05-02T22:27:32.502Z,99284.39
2019-05-02T22:30:08.539Z,99280.45
2019-05-02T22:32:42.757Z,99277.83
2019-05-02T22:35:15.747Z,99279.13
2019-05-02T22:37:50.009Z,99277.34
2019-05-02T22:40:22.737Z,99275.15
2019-05-02T22:42:55.411Z,99278.19
2019-05-02T22:45:28.198Z,99273.38
2019-05-02T22:48:02.601Z,99267.67
2019-05-02T22:50:36.099Z,99265.95
2019-05-02T22:53:08.807Z,99272.08
2019-05-02T22:55:42.555Z,99275.19
2019-05-02T22:58:15.370Z,99278.73
2019-05-02T23:00:48.063Z,99275.22
2019-05-02T23:03:21.535Z,99274.83
2019-05-02T23:05:55.257Z,99273.09
2019-05-02T23:08:28.043Z,99266.98
2019-05-02T23:11:01.135Z,99262.66
2019-05-02T23:13:34.118Z,99267.89
2019-05-02T23:16:07.156Z,99263.52
2019-05-02T23:18:40.099Z,99262.65
2019-05-02T23:21:12.962Z,99264.84
2019-05-02T23:23:45.641Z,99264.42
2019-05-02T23:26:27.586Z,99261.37
2019-05-02T23:29:02.355Z,99257.03
2019-05-02T23:31:36.068Z,99264.45
2019-05-02T23:34:09.786Z,99258.80
2019-05-02T23:36:42.473Z,99253.12
2019-05-02T23:39:15.235Z,99257.94
2019-05-02T23:41:47.924Z,99264.93
2019-05-02T23:44:22.698Z,99255.32
2019-05-02T23:46:56.100Z,99260.58
2019-05-02T23:49:29.151Z,99255.34
2019-05-02T23:52:02.258Z,99259.27
2019-05-02T23:54:35.406Z,99259.25
2019-05-02T23:57:08.091Z,99261.47
2019-05-02T23:59:42.421Z,99259.25
